Time;durP1;ratioP1;P1;durP2;ratioP2;P2;SDS_P1;SDS_P2;PMS_P1;PMS_P2;Temp;Humidity;BMP_temperature;BMP_pressure;BME280_temperature;BME280_humidity;BME280_pressure;Samples;Min_cycle;Max_cycle;Signal;HPM_P1;HPM_P2
2021/06/29 00:01:57;;;;;;;;;1.33;1.33;;;;;21.32;52.12;100826.47;5072821;28;45765;-51
2021/06/29 00:04:22;;;;;;;;;2.67;2.67;;;;;21.31;52.21;100816.66;5077907;27;45420;-50
2021/06/29 00:06:49;;;;;;;;;4.00;4.00;;;;;21.28;52.55;100813.28;5073572;27;45623;-52
2021/06/29 00:09:14;;;;;;;;;3.50;3.50;;;;;21.27;52.23;100807.03;5065953;28;47327;-53
2021/06/29 00:11:40;;;;;;;;;3.67;3.67;;;;;21.27;52.14;100803.47;5072933;27;45556;-53
2021/06/29 00:14:06;;;;;;;;;3.00;3.00;;;;;21.28;52.00;100805.19;5067063;28;45467;-52
2021/06/29 00:16:31;;;;;;;;;4.00;4.00;;;;;21.27;52.57;100812.44;5076948;28;45433;-51
2021/06/29 00:18:57;;;;;;;;;2.00;2.00;;;;;21.28;52.47;100818.69;5077613;27;47869;-51
2021/06/29 00:21:22;;;;;;;;;2.67;2.00;;;;;21.28;52.71;100811.47;5072954;27;45340;-48
2021/06/29 00:23:48;;;;;;;;;5.50;5.50;;;;;21.28;52.57;100816.00;5066937;28;45381;-52
2021/06/29 00:26:14;;;;;;;;;2.67;2.67;;;;;21.28;52.85;100813.28;5073934;28;45321;-49
2021/06/29 00:28:39;;;;;;;;;6.00;6.00;;;;;21.29;52.48;100809.63;5075812;28;48353;-51
2021/06/29 00:31:05;;;;;;;;;3.00;3.00;;;;;21.30;52.58;100806.81;5072701;28;45345;-53
2021/06/29 00:33:32;;;;;;;;;2.00;2.00;;;;;21.30;53.26;100811.34;5076480;27;45378;-51
2021/06/29 00:35:57;;;;;;;;;5.67;3.00;;;;;21.27;53.08;100809.72;5066799;28;45311;-53
2021/06/29 00:38:23;;;;;;;;;2.00;2.00;;;;;21.27;53.01;100801.63;5075704;27;45551;-51
2021/06/29 00:40:50;;;;;;;;;3.00;3.00;;;;;21.27;53.10;100806.16;5074040;28;45304;-48
2021/06/29 00:43:16;;;;;;;;;1.67;1.67;;;;;21.28;52.99;100799.78;5084061;27;45882;-52
2021/06/29 00:45:41;;;;;;;;;3.00;3.00;;;;;21.26;53.38;100799.91;5074686;27;45530;-51
2021/06/29 00:48:07;;;;;;;;;2.00;2.00;;;;;21.24;53.71;100793.72;5081433;27;48420;-50
2021/06/29 00:50:33;;;;;;;;;1.67;1.67;;;;;21.23;53.73;100796.50;5070034;27;46044;-49
2021/06/29 00:52:58;;;;;;;;;2.00;2.00;;;;;21.22;53.44;100798.34;5079099;28;45735;-48
2021/06/29 00:55:24;;;;;;;;;1.33;1.33;;;;;21.21;53.28;100791.19;5081082;27;45547;-49
2021/06/29 00:57:51;;;;;;;;;1.00;1.00;;;;;21.20;53.44;100777.78;5079634;27;48303;-52
2021/06/29 01:00:18;;;;;;;;;2.00;2.00;;;;;21.21;53.69;100783.09;5079137;27;45825;-53
2021/06/29 01:02:43;;;;;;;;;2.67;2.67;;;;;21.22;53.78;100787.53;5079600;28;45453;-50
2021/06/29 01:05:10;;;;;;;;;1.00;1.00;;;;;21.22;53.65;100786.69;5076104;27;45381;-52
2021/06/29 01:07:35;;;;;;;;;2.00;2.00;;;;;21.22;54.01;100782.16;5075316;27;48486;-50
2021/06/29 01:10:06;;;;;;;;;2.00;2.00;;;;;21.17;53.43;100781.56;5078382;27;45399;-52
2021/06/29 01:12:33;;;;;;;;;2.00;2.00;;;;;21.15;54.25;100772.69;5066557;28;45451;-49
2021/06/29 01:14:59;;;;;;;;;2.33;2.33;;;;;21.10;53.93;100767.63;5072438;27;45447;-51
2021/06/29 01:17:25;;;;;;;;;3.00;2.00;;;;;21.06;54.14;100776.84;5078646;27;46741;-51
2021/06/29 01:19:51;;;;;;;;;2.33;1.33;;;;;21.03;54.09;100773.50;5070161;27;45668;-52
2021/06/29 01:22:19;;;;;;;;;3.00;2.00;;;;;20.95;54.60;100767.72;5062004;28;45377;-49
2021/06/29 01:24:50;;;;;;;;;3.00;3.00;;;;;20.92;54.15;100766.09;5070967;27;45512;-52
2021/06/29 01:27:44;;;;;;;;;3.00;3.00;;;;;20.93;54.54;100775.03;5073551;28;47346;-51
2021/06/29 01:32:30;;;;;;;;;2.00;2.00;;;;;20.95;55.08;100760.47;5065814;27;45713;-51
2021/06/29 01:34:55;;;;;;;;;1.67;1.67;;;;;20.96;54.21;100764.03;5070306;28;45324;-53
2021/06/29 01:37:22;;;;;;;;;4.00;3.00;;;;;20.93;54.49;100770.50;5066420;28;48458;-52
2021/06/29 01:39:53;;;;;;;;;3.00;3.00;;;;;20.96;54.63;100764.03;5067278;27;45409;-52
2021/06/29 01:42:18;;;;;;;;;2.67;2.67;;;;;20.97;54.59;100760.41;5075783;27;45796;-53
2021/06/29 01:44:44;;;;;;;;;2.33;2.00;;;;;20.96;54.54;100767.63;5066521;27;45509;-50
2021/06/29 01:47:11;;;;;;;;;2.00;2.00;;;;;20.89;54.71;100763.59;5094455;27;47409;-52
2021/06/29 01:49:36;;;;;;;;;1.00;1.00;;;;;20.85;54.61;100760.22;5067244;27;45284;-50
2021/06/29 01:52:02;;;;;;;;;2.67;2.67;;;;;20.81;54.75;100760.50;5079634;27;45895;-48
2021/06/29 01:54:27;;;;;;;;;2.33;2.33;;;;;20.79;55.04;100760.59;5066128;27;45868;-52
2021/06/29 01:56:53;;;;;;;;;3.00;3.00;;;;;20.79;54.73;100757.03;5072053;27;47350;-50
2021/06/29 01:59:21;;;;;;;;;3.00;2.00;;;;;20.76;55.05;100760.81;5074336;28;46569;-53
2021/06/29 02:01:46;;;;;;;;;2.00;2.00;;;;;20.77;55.50;100753.56;5071682;27;45368;-52
2021/06/29 02:04:12;;;;;;;;;2.00;2.00;;;;;20.81;55.01;100758.66;5058217;28;45767;-51
2021/06/29 02:06:42;;;;;;;;;1.67;1.67;;;;;20.78;54.81;100748.09;5068024;28;48198;-51
2021/06/29 02:09:09;;;;;;;;;1.33;1.00;;;;;20.77;55.14;100757.13;5073288;27;45729;-52
2021/06/29 02:11:39;;;;;;;;;2.00;2.00;;;;;20.79;55.18;100752.50;5070635;27;45243;-51
2021/06/29 02:14:06;;;;;;;;;3.00;2.00;;;;;20.81;55.02;100747.88;5073413;27;49423;-50
2021/06/29 02:16:32;;;;;;;;;2.00;2.00;;;;;20.78;55.45;100742.69;5061546;28;47082;-52
2021/06/29 02:18:58;;;;;;;;;2.00;2.00;;;;;20.80;55.48;100739.88;5070788;27;45319;-51
2021/06/29 02:21:23;;;;;;;;;2.00;2.00;;;;;20.81;55.53;100745.19;5066161;28;45224;-52
2021/06/29 02:23:49;;;;;;;;;3.00;3.00;;;;;20.81;55.38;100750.56;5065381;28;45376;-53
2021/06/29 02:26:15;;;;;;;;;2.00;2.00;;;;;20.82;55.47;100746.03;5067215;28;45364;-53
2021/06/29 02:28:40;;;;;;;;;3.00;2.00;;;;;20.84;55.90;100741.44;5077494;27;45411;-52
2021/06/29 02:31:06;;;;;;;;;2.67;2.67;;;;;20.86;55.75;100745.78;5089478;27;45369;-50
2021/06/29 02:33:32;;;;;;;;;3.00;2.00;;;;;20.88;55.78;100744.81;5082883;27;45507;-51
2021/06/29 02:35:57;;;;;;;;;2.67;2.67;;;;;20.89;55.40;100749.22;5069018;28;47989;-53
2021/06/29 02:38:26;;;;;;;;;3.00;3.00;;;;;20.90;55.73;100743.75;5074312;28;45407;-51
2021/06/29 02:40:53;;;;;;;;;3.00;3.00;;;;;20.89;55.85;100741.13;5079301;27;45285;-49
2021/06/29 02:43:18;;;;;;;;;5.67;3.33;;;;;20.91;55.73;100742.78;5071328;27;45312;-53
2021/06/29 02:45:44;;;;;;;;;3.00;3.00;;;;;20.93;55.72;100737.28;5064321;27;47300;-51
2021/06/29 02:48:10;;;;;;;;;4.00;4.00;;;;;20.95;55.33;100741.59;5089635;27;45335;-52
2021/06/29 02:50:36;;;;;;;;;3.33;3.33;;;;;20.97;55.93;100747.78;5072114;28;45344;-53
2021/06/29 02:53:02;;;;;;;;;6.00;4.33;;;;;20.97;55.81;100753.19;5072343;28;45341;-53
2021/06/29 02:55:27;;;;;;;;;3.00;3.00;;;;;20.95;55.58;100746.13;5081766;27;48178;-52
2021/06/29 02:57:53;;;;;;;;;2.00;2.00;;;;;20.94;55.32;100736.31;5065615;27;45445;-53
2021/06/29 03:00:21;;;;;;;;;2.00;2.00;;;;;20.92;55.37;100727.44;5074674;28;45447;-52
2021/06/29 03:02:47;;;;;;;;;2.00;2.00;;;;;20.90;55.80;100738.34;5062444;28;45595;-50
2021/06/29 03:05:14;;;;;;;;;2.00;2.00;;;;;20.90;55.41;100721.28;5058752;27;47018;-54
2021/06/29 03:07:40;;;;;;;;;3.00;3.00;;;;;20.85;55.29;100714.38;5075739;27;45299;-52
2021/06/29 03:10:07;;;;;;;;;3.00;2.33;;;;;20.83;55.78;100712.72;5075785;28;45818;-51
2021/06/29 03:12:34;;;;;;;;;3.00;2.00;;;;;20.80;55.55;100715.63;5076635;27;45797;-54
2021/06/29 03:15:01;;;;;;;;;1.67;1.67;;;;;20.77;55.53;100705.91;5061441;27;48373;-53
2021/06/29 03:17:28;;;;;;;;;2.00;2.00;;;;;20.76;55.55;100704.16;5088646;27;45636;-51
2021/06/29 03:19:54;;;;;;;;;3.33;3.33;;;;;20.75;55.86;100693.47;5062300;27;45279;-52
2021/06/29 03:22:21;;;;;;;;;3.00;2.67;;;;;20.75;55.84;100697.03;5084384;27;45428;-52
2021/06/29 03:24:47;;;;;;;;;2.00;2.00;;;;;20.76;56.07;100708.69;5073793;27;47991;-52
2021/06/29 03:27:13;;;;;;;;;2.00;2.00;;;;;20.76;55.68;100696.06;5069038;28;45318;-52
2021/06/29 03:29:39;;;;;;;;;2.00;2.00;;;;;20.75;55.76;100694.34;5064740;27;45356;-53
2021/06/29 03:32:05;;;;;;;;;3.00;3.00;;;;;20.74;56.06;100689.91;5068253;27;45298;-53
2021/06/29 03:34:31;;;;;;;;;3.33;3.33;;;;;20.73;55.92;100687.31;5071160;28;47266;-50
2021/06/29 03:36:57;;;;;;;;;2.33;2.33;;;;;20.72;55.62;100694.56;5091817;27;45557;-54
2021/06/29 03:39:23;;;;;;;;;2.00;2.00;;;;;20.64;55.30;100696.84;5077124;28;45505;-52
2021/06/29 03:41:48;;;;;;;;;2.33;2.33;;;;;20.61;55.74;100705.16;5083409;27;45356;-53
2021/06/29 03:44:14;;;;;;;;;2.00;2.00;;;;;20.63;56.10;100707.75;5076514;28;46246;-52
2021/06/29 03:46:40;;;;;;;;;4.00;4.00;;;;;20.63;56.22;100705.03;5085708;27;45293;-50
2021/06/29 03:49:05;;;;;;;;;3.00;3.00;;;;;20.64;55.55;100702.25;5078637;27;45607;-50
2021/06/29 03:51:31;;;;;;;;;4.00;2.00;;;;;20.64;55.62;100702.25;5064828;27;45546;-52
2021/06/29 03:53:56;;;;;;;;;2.00;2.00;;;;;20.66;55.74;100686.84;5076987;28;46968;-53
2021/06/29 03:56:29;;;;;;;;;3.00;3.00;;;;;20.67;55.62;100698.47;5070229;27;45552;-49
2021/06/29 03:58:56;;;;;;;;;1.67;1.67;;;;;20.65;56.27;100698.59;5064790;27;46242;-52
2021/06/29 04:01:22;;;;;;;;;3.00;3.00;;;;;20.66;55.36;100705.72;5058300;28;45554;-53
2021/06/29 04:03:48;;;;;;;;;3.00;3.00;;;;;20.66;55.51;100708.41;5056417;28;48187;-48
2021/06/29 04:06:14;;;;;;;;;2.00;2.00;;;;;20.65;55.94;100701.28;5062049;28;45423;-52
2021/06/29 04:08:41;;;;;;;;;2.00;2.00;;;;;20.67;55.92;100701.19;5058641;28;45392;-53
2021/06/29 04:11:06;;;;;;;;;3.00;2.67;;;;;20.72;55.45;100697.25;5072500;27;45360;-53
2021/06/29 04:13:32;;;;;;;;;2.00;2.00;;;;;20.76;55.77;100703.31;5083068;27;45983;-51
2021/06/29 04:15:57;;;;;;;;;3.00;3.00;;;;;20.76;55.43;100700.59;5076145;28;45790;-53
2021/06/29 04:18:23;;;;;;;;;3.00;3.00;;;;;20.75;55.29;100710.53;5078705;27;45275;-51
2021/06/29 04:20:48;;;;;;;;;3.00;3.00;;;;;20.75;55.00;100712.34;5081276;27;45337;-52
2021/06/29 04:23:14;;;;;;;;;3.00;3.00;;;;;20.73;55.58;100706.19;5066502;28;47709;-53
2021/06/29 04:25:39;;;;;;;;;2.00;2.00;;;;;20.72;54.96;100705.34;5080236;28;45706;-53
2021/06/29 04:28:05;;;;;;;;;2.00;2.00;;;;;20.70;55.24;100693.75;5066214;28;45414;-52
2021/06/29 04:30:30;;;;;;;;;3.00;3.00;;;;;20.70;55.20;100699.16;5068193;28;45216;-49
2021/06/29 04:32:56;;;;;;;;;3.25;3.25;;;;;20.71;55.29;100698.22;5073760;28;48662;-53
2021/06/29 04:35:22;;;;;;;;;3.33;3.00;;;;;20.73;55.09;100692.72;5068553;28;45667;-49
2021/06/29 04:37:47;;;;;;;;;2.00;2.00;;;;;20.75;55.33;100693.47;5074530;28;45423;-53
2021/06/29 04:40:13;;;;;;;;;2.00;2.00;;;;;20.73;55.31;100695.41;5074955;28;45305;-53
2021/06/29 04:42:39;;;;;;;;;3.00;2.00;;;;;20.69;54.77;100696.56;5068523;28;45383;-53
2021/06/29 04:45:05;;;;;;;;;2.00;2.00;;;;;20.64;55.23;100701.38;5070765;27;45669;-51
2021/06/29 04:47:36;;;;;;;;;3.33;3.00;;;;;20.61;55.63;100696.19;5084149;27;45416;-52
2021/06/29 04:50:05;;;;;;;;;4.00;3.00;;;;;20.61;55.49;100694.38;5068463;28;45406;-51
2021/06/29 04:52:30;;;;;;;;;3.67;3.67;;;;;20.61;55.66;100688.09;5056738;28;47224;-52
2021/06/29 04:54:56;;;;;;;;;2.33;2.33;;;;;20.62;55.44;100688.00;5071397;28;45916;-53
2021/06/29 04:57:21;;;;;;;;;3.00;3.00;;;;;20.62;55.07;100687.13;5067518;27;45528;-54
2021/06/29 04:59:47;;;;;;;;;2.00;2.00;;;;;20.62;55.42;100688.00;5068357;28;45525;-53
2021/06/29 05:02:13;;;;;;;;;4.00;3.00;;;;;20.65;55.14;100685.09;5066955;27;47455;-52
2021/06/29 05:04:39;;;;;;;;;4.00;4.00;;;;;20.69;55.57;100680.38;5076939;28;45357;-49
2021/06/29 05:07:04;;;;;;;;;1.33;1.33;;;;;20.71;55.36;100692.81;5078076;28;45579;-49
2021/06/29 05:09:30;;;;;;;;;2.67;2.67;;;;;20.72;55.05;100693.69;5068724;27;45508;-54
2021/06/29 05:11:55;;;;;;;;;3.00;3.00;;;;;20.76;55.07;100695.22;5078449;27;47641;-53
2021/06/29 05:14:21;;;;;;;;;3.00;3.00;;;;;20.82;55.22;100703.75;5061667;27;46047;-53
2021/06/29 05:16:46;;;;;;;;;3.00;3.00;;;;;20.90;55.10;100705.09;5078691;28;45412;-54
2021/06/29 05:19:11;;;;;;;;;3.00;3.00;;;;;20.94;54.88;100707.50;5065788;27;45315;-49
2021/06/29 05:21:37;;;;;;;;;2.33;2.33;;;;;20.99;54.72;100709.91;5067378;28;48205;-51
2021/06/29 05:24:03;;;;;;;;;3.00;3.00;;;;;21.02;55.08;100707.00;5073328;28;45827;-53
2021/06/29 05:26:28;;;;;;;;;3.00;3.00;;;;;21.06;55.11;100711.22;5074801;27;45581;-51
2021/06/29 05:28:54;;;;;;;;;2.67;2.00;;;;;21.10;54.52;100713.66;5079139;27;45324;-49
2021/06/29 05:31:19;;;;;;;;;4.00;3.75;;;;;21.16;54.99;100717.75;5068420;28;48137;-50
2021/06/29 05:33:45;;;;;;;;;3.00;3.00;;;;;21.20;54.78;100723.81;5073239;27;45339;-52
2021/06/29 05:36:10;;;;;;;;;3.33;3.33;;;;;21.24;54.86;100720.84;5060105;28;45294;-47
2021/06/29 05:38:36;;;;;;;;;3.00;3.00;;;;;21.30;54.39;100722.28;5064886;28;45311;-52
2021/06/29 05:41:02;;;;;;;;;4.00;4.00;;;;;21.34;54.04;100727.41;5065581;28;47389;-50
2021/06/29 05:43:27;;;;;;;;;3.00;3.00;;;;;21.38;54.51;100728.03;5072824;27;45502;-52
2021/06/29 05:45:53;;;;;;;;;2.33;2.33;;;;;21.39;53.81;100729.78;5074021;27;45349;-54
2021/06/29 05:48:19;;;;;;;;;2.33;2.33;;;;;21.40;53.99;100737.78;5063300;28;45583;-52
2021/06/29 05:50:44;;;;;;;;;6.00;6.00;;;;;21.42;53.88;100732.25;5067470;28;48160;-50
2021/06/29 05:53:10;;;;;;;;;4.00;4.00;;;;;21.39;53.98;100737.88;5077220;28;45341;-51
2021/06/29 05:55:36;;;;;;;;;7.00;7.00;;;;;21.42;53.75;100733.13;5066219;28;45447;-52
2021/06/29 05:58:01;;;;;;;;;3.75;3.75;;;;;21.44;53.81;100736.59;5076472;27;46187;-51
2021/06/29 06:00:27;;;;;;;;;4.00;3.67;;;;;21.44;54.09;100733.88;5073827;27;47081;-53
2021/06/29 06:02:52;;;;;;;;;4.00;4.00;;;;;21.50;54.24;100738.03;5064035;28;45750;-53
2021/06/29 06:05:18;;;;;;;;;4.00;4.00;;;;;21.54;53.59;100739.53;5071340;28;45566;-53
2021/06/29 06:07:44;;;;;;;;;4.00;4.00;;;;;21.58;53.60;100740.19;5073226;28;45582;-54
2021/06/29 06:10:10;;;;;;;;;3.00;3.00;;;;;21.60;53.42;100743.69;5083438;27;45457;-52
2021/06/29 06:12:35;;;;;;;;;5.67;4.33;;;;;21.63;54.00;100738.94;5073290;27;45429;-53
2021/06/29 06:15:01;;;;;;;;;3.00;3.00;;;;;21.65;53.35;100738.84;5071581;27;45323;-50
2021/06/29 06:17:27;;;;;;;;;5.00;5.00;;;;;21.64;53.66;100740.66;5069213;28;45545;-53
2021/06/29 06:19:55;;;;;;;;;3.75;3.75;;;;;21.69;53.82;100746.63;5059242;28;46207;-50
2021/06/29 06:22:21;;;;;;;;;3.00;3.00;;;;;21.73;53.50;100752.69;5064197;28;45381;-54
2021/06/29 06:24:47;;;;;;;;;4.00;4.00;;;;;21.73;52.95;100753.56;5072544;28;45403;-52
2021/06/29 06:27:14;;;;;;;;;4.00;3.00;;;;;21.72;53.58;100761.75;5058022;28;45347;-52
2021/06/29 06:29:40;;;;;;;;;7.25;5.00;;;;;21.74;53.20;100752.59;5072701;28;46399;-51
2021/06/29 06:32:07;;;;;;;;;3.75;3.75;;;;;21.76;53.31;100744.38;5067721;27;45694;-51
2021/06/29 06:34:32;;;;;;;;;3.00;3.00;;;;;21.77;53.36;100750.66;5063217;27;45399;-53
2021/06/29 06:36:58;;;;;;;;;5.00;5.00;;;;;21.77;53.14;100751.50;5056177;28;45296;-53
2021/06/29 06:39:23;;;;;;;;;3.33;3.33;;;;;21.79;53.28;100757.66;5071580;27;46850;-52
2021/06/29 06:41:49;;;;;;;;;5.00;5.00;;;;;21.77;53.99;100756.91;5069720;28;45336;-51
2021/06/29 06:44:14;;;;;;;;;5.67;5.67;;;;;21.76;53.73;100757.88;5065701;27;45289;-49
2021/06/29 06:46:40;;;;;;;;;4.33;4.33;;;;;21.76;53.92;100749.78;5077040;27;45439;-50
2021/06/29 06:49:05;;;;;;;;;3.00;3.00;;;;;21.74;53.95;100744.47;5067324;28;48115;-50
2021/06/29 06:51:31;;;;;;;;;6.00;6.00;;;;;21.71;53.63;100749.19;5071128;28;45605;-47
2021/06/29 06:53:56;;;;;;;;;4.67;4.67;;;;;21.69;54.05;100746.63;5077106;28;45252;-50
2021/06/29 06:56:22;;;;;;;;;4.00;4.00;;;;;21.73;54.39;100750.88;5071229;28;45370;-50
2021/06/29 06:58:47;;;;;;;;;4.00;4.00;;;;;21.74;54.18;100749.88;5077334;28;47379;-48
2021/06/29 07:01:14;;;;;;;;;7.00;5.00;;;;;21.73;53.74;100750.00;5068111;27;45568;-52
2021/06/29 07:03:40;;;;;;;;;6.00;6.00;;;;;21.71;54.31;100762.72;5069457;27;45362;-52
2021/06/29 07:06:06;;;;;;;;;6.75;5.50;;;;;21.69;54.50;100753.84;5063875;27;45309;-52
2021/06/29 07:08:32;;;;;;;;;5.00;5.00;;;;;21.66;54.21;100756.75;5078492;28;46324;-51
2021/06/29 07:10:59;;;;;;;;;6.00;6.00;;;;;21.60;54.44;100765.28;5065192;27;45648;-52
2021/06/29 07:13:24;;;;;;;;;5.33;5.00;;;;;21.61;54.30;100761.63;5091803;27;45427;-50
2021/06/29 07:15:50;;;;;;;;;6.00;6.00;;;;;21.62;54.77;100766.91;5076861;27;45618;-52
2021/06/29 07:18:17;;;;;;;;;4.75;4.75;;;;;21.64;54.72;100766.81;5092385;27;47233;-53
2021/06/29 07:20:43;;;;;;;;;4.00;4.00;;;;;21.67;54.89;100766.59;5066749;27;45644;-51
2021/06/29 07:23:10;;;;;;;;;6.00;6.00;;;;;21.65;54.44;100758.59;5064849;28;45408;-50
2021/06/29 07:25:35;;;;;;;;;7.75;5.75;;;;;21.64;55.02;100772.22;5077310;27;45473;-51
2021/06/29 07:28:01;;;;;;;;;4.00;4.00;;;;;21.65;54.86;100772.09;5063815;28;47931;-51
2021/06/29 07:30:26;;;;;;;;;5.00;5.00;;;;;21.68;55.13;100768.31;5069928;27;45441;-52
2021/06/29 07:32:54;;;;;;;;;5.75;5.75;;;;;21.69;54.57;100765.53;5065546;28;45487;-52
2021/06/29 07:35:20;;;;;;;;;4.75;4.00;;;;;21.72;55.07;100765.34;5069433;28;45598;-51
2021/06/29 07:37:45;;;;;;;;;6.00;6.00;;;;;21.76;54.83;100767.81;5093879;27;47080;-50
2021/06/29 07:40:11;;;;;;;;;5.00;4.00;;;;;21.79;55.23;100765.78;5083553;27;45782;-53
2021/06/29 07:42:37;;;;;;;;;6.00;6.00;;;;;21.83;54.81;100770.00;5070175;27;45230;-49
2021/06/29 07:45:07;;;;;;;;;5.25;5.00;;;;;21.86;54.95;100764.41;5072770;28;45460;-51
2021/06/29 07:47:33;;;;;;;;;5.00;4.67;;;;;21.88;54.77;100767.00;5065669;27;47278;-51
2021/06/29 07:49:58;;;;;;;;;4.50;4.50;;;;;21.92;55.04;100769.38;5063093;28;45720;-52
2021/06/29 07:52:24;;;;;;;;;5.00;5.00;;;;;21.98;55.00;100758.16;5073478;27;45579;-52
2021/06/29 07:54:50;;;;;;;;;6.00;6.00;;;;;22.08;54.92;100761.09;5066603;28;45322;-53
2021/06/29 07:57:15;;;;;;;;;6.50;6.50;;;;;22.13;54.06;100766.22;5056711;28;46451;-51
2021/06/29 07:59:40;;;;;;;;;7.00;5.25;;;;;22.15;55.30;100765.13;5057817;28;45393;-53
2021/06/29 08:02:07;;;;;;;;;6.00;5.00;;;;;22.23;54.61;100764.59;5057949;28;45402;-52
2021/06/29 08:04:33;;;;;;;;;5.75;4.00;;;;;22.30;54.81;100771.31;5058365;28;45466;-49
2021/06/29 08:06:59;;;;;;;;;7.50;7.00;;;;;22.36;54.38;100764.59;5063676;28;48004;-53
2021/06/29 08:09:25;;;;;;;;;4.33;4.33;;;;;22.41;53.98;100765.16;5065906;28;45560;-49
2021/06/29 08:11:51;;;;;;;;;6.33;6.00;;;;;22.43;54.51;100768.63;5071050;28;45545;-51
2021/06/29 08:14:16;;;;;;;;;4.00;4.00;;;;;22.48;53.49;100774.56;5070508;27;45399;-52
2021/06/29 08:16:45;;;;;;;;;5.00;5.00;;;;;22.51;53.10;100769.81;5067053;27;47119;-50
2021/06/29 08:19:10;;;;;;;;;4.67;4.00;;;;;22.50;53.01;100776.19;5075366;28;45518;-52
2021/06/29 08:21:36;;;;;;;;;3.00;3.00;;;;;22.48;52.85;100772.72;5074009;27;45902;-53
2021/06/29 08:24:01;;;;;;;;;6.00;6.00;;;;;22.50;52.90;100775.34;5077055;27;45750;-51
2021/06/29 08:26:27;;;;;;;;;4.00;4.00;;;;;22.49;52.89;100774.47;5074941;28;47022;-51
2021/06/29 08:28:52;;;;;;;;;4.33;4.33;;;;;22.50;53.08;100778.91;5074605;27;45480;-53
2021/06/29 08:31:21;;;;;;;;;3.00;3.00;;;;;22.47;52.94;100779.09;5075975;27;45489;-51
2021/06/29 08:33:48;;;;;;;;;6.00;5.00;;;;;22.46;52.72;100777.38;5087857;27;45458;-51
2021/06/29 08:36:13;;;;;;;;;3.67;3.67;;;;;22.47;52.33;100780.94;5072805;27;47529;-52
2021/06/29 08:38:39;;;;;;;;;5.00;5.00;;;;;22.46;52.45;100785.47;5069649;27;45337;-53
2021/06/29 08:41:04;;;;;;;;;5.00;5.00;;;;;22.48;52.75;100778.13;5065175;28;45419;-54
2021/06/29 08:43:30;;;;;;;;;4.00;4.00;;;;;22.52;52.43;100785.06;5070912;28;45536;-51
2021/06/29 08:45:56;;;;;;;;;7.00;5.00;;;;;22.59;52.54;100777.38;5071545;27;48249;-53
2021/06/29 08:48:22;;;;;;;;;5.33;5.33;;;;;22.65;52.43;100781.50;5070829;27;45361;-50
2021/06/29 08:50:47;;;;;;;;;5.00;5.00;;;;;22.73;52.32;100779.94;5089396;27;45563;-51
2021/06/29 08:53:15;;;;;;;;;3.00;3.00;;;;;22.81;52.23;100782.13;5069032;28;45420;-52
2021/06/29 08:55:48;;;;;;;;;4.00;4.00;;;;;22.88;51.28;100786.16;5057569;28;47296;-54
2021/06/29 08:58:16;;;;;;;;;4.00;4.00;;;;;22.89;51.08;100782.47;5069984;28;45993;-55
2021/06/29 09:00:42;;;;;;;;;8.25;7.25;;;;;22.92;51.46;100782.25;5058889;27;45457;-54
2021/06/29 09:03:08;;;;;;;;;6.00;4.00;;;;;22.96;50.60;100778.34;5082112;27;45282;-56
2021/06/29 09:05:33;;;;;;;;;3.00;3.00;;;;;22.99;50.50;100783.53;5068744;28;48261;-56
2021/06/29 09:08:06;;;;;;;;;2.00;2.00;;;;;22.98;49.62;100783.63;5078689;27;45710;-53
2021/06/29 09:10:34;;;;;;;;;4.33;2.00;;;;;22.98;49.74;100784.50;5075354;27;45647;-48
2021/06/29 09:13:00;;;;;;;;;3.00;3.00;;;;;22.98;49.40;100786.34;5072680;27;45814;-48
2021/06/29 09:15:39;;;;;;;;;2.00;2.00;;;;;22.99;49.27;100779.94;5074380;27;47740;-51
2021/06/29 09:18:04;;;;;;;;;2.33;2.00;;;;;23.01;49.34;100783.44;5057967;27;46390;-50
2021/06/29 09:20:34;;;;;;;;;2.33;2.33;;;;;23.05;49.13;100788.50;5074067;27;45843;-49
2021/06/29 09:23:08;;;;;;;;;3.00;3.00;;;;;23.09;49.07;100784.59;5069630;27;45478;-51
2021/06/29 09:25:34;;;;;;;;;3.00;2.00;;;;;23.13;49.00;100782.56;5077060;27;45740;-52
2021/06/29 09:28:00;;;;;;;;;3.00;3.00;;;;;23.13;48.70;100783.41;5071390;27;45631;-46
2021/06/29 09:30:45;;;;;;;;;3.00;3.00;;;;;23.17;48.88;100786.75;5078766;27;45382;-48
2021/06/29 09:33:17;;;;;;;;;3.67;3.67;;;;;23.22;48.80;100783.69;5072581;28;45350;-52
2021/06/29 09:35:47;;;;;;;;;2.33;2.33;;;;;23.23;48.13;100778.16;5060057;27;46922;-50
2021/06/29 09:38:20;;;;;;;;;3.00;3.00;;;;;23.24;48.56;100777.19;5086151;27;45531;-49
2021/06/29 09:40:50;;;;;;;;;3.00;3.00;;;;;23.27;48.36;100774.28;5073935;27;45467;-47
2021/06/29 09:43:17;;;;;;;;;3.67;3.00;;;;;23.31;48.26;100778.47;5076675;27;45449;-49
2021/06/29 09:45:55;;;;;;;;;3.67;3.67;;;;;23.36;47.91;100770.00;5078050;27;48248;-47
2021/06/29 09:48:38;;;;;;;;;3.00;3.00;;;;;23.37;48.02;100772.59;5077052;27;45619;-52
2021/06/29 09:51:13;;;;;;;;;3.00;3.00;;;;;23.43;47.83;100764.03;5068164;28;45580;-50
2021/06/29 09:53:41;;;;;;;;;4.00;4.00;;;;;23.49;48.02;100760.84;5065642;28;45709;-49
2021/06/29 09:56:13;;;;;;;;;4.00;4.00;;;;;23.58;48.10;100766.59;5083785;27;47075;-51
2021/06/29 09:58:40;;;;;;;;;2.00;2.00;;;;;23.64;47.72;100766.16;5062968;28;45306;-51
2021/06/29 10:01:07;;;;;;;;;3.00;3.00;;;;;23.66;47.25;100764.19;5067769;28;45766;-48
2021/06/29 10:03:35;;;;;;;;;2.67;2.67;;;;;23.68;47.23;100771.22;5077580;27;45379;-47
2021/06/29 10:06:22;;;;;;;;;3.25;3.25;;;;;23.71;46.74;100761.97;5076832;28;47519;-50
2021/06/29 10:08:51;;;;;;;;;4.67;3.00;;;;;23.76;47.28;100765.22;5076193;28;45441;-51
2021/06/29 10:11:39;;;;;;;;;1.33;0.33;;;;;23.83;46.87;100768.31;5076701;28;45423;-47
2021/06/29 10:14:07;;;;;;;;;2.00;2.00;;;;;23.88;46.04;100766.97;5084585;27;45421;-47
2021/06/29 10:16:38;;;;;;;;;1.33;1.33;;;;;23.92;45.63;100773.91;5078358;27;45751;-49
2021/06/29 10:21:37;;;;;;;;;2.00;1.00;;;;;24.00;45.00;100770.59;5075664;27;45380;-50
2021/06/29 10:24:06;;;;;;;;;2.67;2.67;;;;;23.96;44.84;100766.41;5076678;27;46132;-47
2021/06/29 10:26:34;;;;;;;;;1.67;1.67;;;;;23.89;44.67;100760.59;5072392;27;45494;-51
2021/06/29 10:29:02;;;;;;;;;1.67;1.67;;;;;23.85;44.11;100759.06;5071549;27;45551;-49
2021/06/29 10:31:31;;;;;;;;;0.33;0.33;;;;;23.82;43.67;100755.75;5075846;28;45607;-49
2021/06/29 10:33:59;;;;;;;;;1.00;1.00;;;;;23.82;44.48;100756.59;5073507;27;45708;-47
2021/06/29 10:36:26;;;;;;;;;2.00;2.00;;;;;23.82;44.17;100756.59;5077239;27;47350;-47
2021/06/29 10:38:53;;;;;;;;;4.50;4.50;;;;;23.82;44.60;100744.91;5068307;27;45464;-48
2021/06/29 10:41:21;;;;;;;;;4.75;3.75;;;;;23.82;44.73;100753.03;5078663;27;45610;-47
2021/06/29 10:43:48;;;;;;;;;3.33;3.33;;;;;23.83;44.26;100749.34;5077689;27;45416;-48
2021/06/29 10:46:37;;;;;;;;;0.67;0.67;;;;;23.75;43.95;100744.50;5094351;27;47511;-49
2021/06/29 10:49:28;;;;;;;;;1.67;1.67;;;;;23.65;43.74;100748.91;5078352;28;45367;-51
2021/06/29 10:51:56;;;;;;;;;1.50;1.50;;;;;23.60;43.70;100749.25;5058911;28;45737;-52
2021/06/29 10:54:46;;;;;;;;;1.67;1.67;;;;;23.59;43.85;100742.09;5070953;28;45380;-49
2021/06/29 10:57:15;;;;;;;;;0.67;0.67;;;;;23.63;43.09;100749.03;5066701;27;46893;-50
2021/06/29 10:59:49;;;;;;;;;0.33;0.33;;;;;23.69;43.08;100740.44;5086494;27;46097;-48
2021/06/29 11:02:34;;;;;;;;;2.00;2.00;;;;;23.74;43.25;100738.22;5067227;27;45284;-48
2021/06/29 11:05:08;;;;;;;;;1.67;1.67;;;;;23.74;43.54;100740.94;5076530;27;45273;-49
2021/06/29 11:07:41;;;;;;;;;1.67;1.67;;;;;23.85;43.53;100744.66;5071400;27;47349;-50
2021/06/29 11:10:29;;;;;;;;;3.00;1.67;;;;;23.95;43.49;100751.13;5068092;27;45800;-50
2021/06/29 11:12:58;;;;;;;;;2.00;2.00;;;;;24.02;42.87;100750.53;5072080;28;45384;-51
2021/06/29 11:15:59;;;;;;;;;2.00;2.00;;;;;24.00;42.80;100744.34;5071202;27;45571;-48
2021/06/29 11:18:33;;;;;;;;;1.67;1.67;;;;;24.07;42.78;100745.59;5013980;28;48366;-48
2021/06/29 11:20:59;;;;;;;;;1.00;1.00;;;;;24.14;42.87;100743.31;5063275;27;45372;-50
2021/06/29 11:23:32;;;;;;;;;5.00;4.00;;;;;24.23;43.06;100745.28;5072008;27;45762;-51
2021/06/29 11:26:13;;;;;;;;;4.00;3.00;;;;;24.35;42.87;100743.47;5064161;28;45470;-49
2021/06/29 11:28:48;;;;;;;;;1.00;1.00;;;;;24.44;42.75;100742.75;5073877;28;47238;-50
2021/06/29 11:31:19;;;;;;;;;1.33;1.33;;;;;24.48;42.07;100748.78;5073746;27;45379;-49